createdAt,value
2016-02-14T19:43:58.223Z,82
2016-02-14T19:44:15.444Z,90
2016-02-14T19:44:56.960Z,82
2016-02-14T19:45:14.947Z,90
2016-02-14T19:45:55.744Z,82
2016-02-14T19:46:54.763Z,82
2016-02-14T19:47:54.030Z,82
2016-02-14T19:48:54.877Z,82
2016-02-14T19:49:53.833Z,82
2016-02-14T19:50:52.851Z,81
2016-02-14T19:51:51.370Z,78
2016-02-14T19:52:51.685Z,75
2016-02-14T19:53:50.203Z,72
2016-02-14T19:54:51.268Z,71
2016-02-14T19:55:51.568Z,69
2016-02-14T19:56:51.101Z,69
2016-02-14T19:57:50.182Z,68
2016-02-14T19:58:51.185Z,68
2016-02-14T19:59:49.703Z,67
2016-02-14T20:00:47.972Z,67
2016-02-14T20:01:46.006Z,66
2016-02-14T20:02:43.759Z,66
2016-02-14T20:03:45.339Z,65
2016-02-14T20:04:46.666Z,65
2016-02-14T20:05:48.060Z,65
2016-02-14T20:06:49.015Z,65
2016-02-14T20:07:50.112Z,66
2016-02-14T20:08:51.115Z,67
2016-02-14T20:09:49.398Z,67
2016-02-14T20:10:47.667Z,67
2016-02-14T20:11:45.685Z,66
2016-02-14T20:12:43.454Z,66
2016-02-14T20:13:41.222Z,66
2016-02-14T20:14:42.786Z,65
2016-02-14T20:15:44.087Z,65
2016-02-14T20:16:45.386Z,65
2016-02-14T20:17:46.514Z,65
2016-02-14T20:18:47.517Z,64
2016-02-14T20:19:48.300Z,64
2016-02-14T20:20:49.116Z,64
2016-02-14T20:21:49.914Z,64
2016-02-14T20:22:50.464Z,64
2016-02-14T20:23:51.030Z,64
2016-02-14T20:24:51.580Z,64
2016-02-14T20:25:52.130Z,64
2016-02-14T20:26:52.678Z,63
2016-02-14T20:27:53.025Z,63
2016-02-14T20:28:54.027Z,63
2016-02-14T20:29:54.328Z,63
2016-02-14T20:31:54.927Z,63
2016-02-14T20:32:55.210Z,63
2016-02-14T20:33:55.536Z,63
2016-02-14T20:34:55.578Z,63
2016-02-14T20:35:55.542Z,63
2016-02-14T20:36:55.782Z,63
2016-02-14T20:37:55.770Z,63
2016-02-14T20:38:56.773Z,63
2016-02-14T20:39:56.806Z,63
2016-02-14T20:40:56.840Z,63
2016-02-14T20:41:56.890Z,62
2016-02-14T20:42:56.706Z,62
2016-02-14T20:43:55.989Z,61
2016-02-14T20:44:54.742Z,60
2016-02-14T20:45:53.011Z,59
2016-02-14T20:46:51.044Z,61
2016-02-14T20:47:49.875Z,62
2016-02-14T20:48:50.861Z,64
2016-02-14T20:49:51.427Z,65
2016-02-14T20:50:52.852Z,67
2016-02-14T20:51:50.761Z,68
2016-02-14T20:52:49.530Z,69
2016-02-14T20:53:49.094Z,70
2016-02-14T20:54:48.707Z,71
2016-02-14T20:55:49.802Z,72
2016-02-14T20:56:50.743Z,73
2016-02-14T20:57:52.386Z,74
2016-02-14T20:58:53.374Z,75
2016-02-14T20:59:52.142Z,76
2016-02-14T21:00:51.691Z,77
2016-02-14T21:01:51.288Z,78
2016-02-14T21:02:52.290Z,79
2016-02-14T21:03:53.340Z,79
2016-02-14T21:04:54.905Z,80
2016-02-14T21:05:52.923Z,81
2016-02-14T21:06:51.473Z,82
2016-02-14T21:07:50.304Z,82
2016-02-14T21:08:51.322Z,82
2016-02-14T21:09:50.606Z,82
2016-02-14T21:10:49.890Z,83
2016-02-14T21:11:49.456Z,83
2016-02-14T21:12:49.114Z,83
2016-02-14T21:13:48.758Z,84
2016-02-14T21:14:48.823Z,84
2016-02-14T21:15:48.856Z,84
2016-02-14T21:16:48.828Z,84
2016-02-14T21:17:49.253Z,84
2016-02-14T21:18:50.256Z,84
2016-02-14T21:19:50.805Z,85
2016-02-14T21:20:51.355Z,85
2016-02-14T21:21:51.905Z,85
2016-02-14T21:22:52.469Z,85
2016-02-14T21:23:53.019Z,85
2016-02-14T21:24:53.584Z,85
2016-02-14T21:25:54.133Z,85
2016-02-14T21:26:54.683Z,85
2016-02-14T21:27:55.546Z,85
2016-02-14T21:28:56.563Z,85
2016-02-14T21:29:57.347Z,85
2016-02-14T21:30:58.179Z,85
2016-02-14T21:31:59.228Z,85
2016-02-14T21:33:00.278Z,85
2016-02-14T21:34:01.358Z,85
2016-02-14T21:35:02.408Z,85
2016-02-14T21:36:03.474Z,85
2016-02-14T21:37:04.538Z,85
2016-02-14T21:38:05.635Z,85
2016-02-14T21:39:06.638Z,85
2016-02-14T21:40:07.719Z,85
2016-02-14T21:42:10.083Z,86
2016-02-14T21:43:11.415Z,86
2016-02-14T21:44:12.698Z,86
2016-02-14T21:45:14.014Z,86
2016-02-14T21:46:15.313Z,86
2016-02-14T21:47:16.643Z,86
2016-02-14T21:48:18.271Z,86
2016-02-14T21:49:19.274Z,86
2016-02-14T21:50:20.824Z,86
2016-02-14T21:51:22.390Z,86
2016-02-14T21:52:23.954Z,86
2016-02-14T21:53:25.520Z,86
2016-02-14T21:54:27.117Z,86
2016-02-14T21:55:28.650Z,86
2016-02-14T21:56:30.215Z,86
2016-02-14T21:57:31.781Z,86
2016-02-14T21:58:33.423Z,86
2016-02-14T21:59:34.442Z,86
2016-02-14T22:00:35.945Z,85
2016-02-14T22:01:36.511Z,81
2016-02-14T22:02:34.528Z,77
2016-02-14T22:03:34.578Z,75
2016-02-14T22:04:33.112Z,73
2016-02-14T22:05:34.661Z,72
2016-02-14T22:06:35.477Z,70
2016-02-14T22:07:35.526Z,69
2016-02-14T22:08:35.154Z,70
2016-02-14T22:09:36.125Z,70
2016-02-14T22:10:35.910Z,70
2016-02-14T22:11:35.975Z,71
2016-02-14T22:12:36.508Z,72
2016-02-14T22:13:37.589Z,72
2016-02-14T22:14:38.874Z,73
2016-02-14T22:15:36.782Z,74
2016-02-14T22:16:34.926Z,75
2016-02-14T22:17:33.694Z,76
2016-02-14T22:18:33.024Z,77
2016-02-14T22:19:34.012Z,77
2016-02-14T22:20:34.062Z,78
2016-02-14T22:21:34.626Z,79
2016-02-14T22:22:35.676Z,79
2016-02-14T22:23:36.757Z,80
2016-02-14T22:24:38.307Z,80
2016-02-14T22:25:36.075Z,81
2016-02-14T22:26:34.093Z,81
2016-02-14T22:27:32.376Z,81
2016-02-14T22:28:30.942Z,81
2016-02-14T22:29:31.944Z,82
2016-02-14T22:30:30.728Z,82
2016-02-14T22:31:29.763Z,82
2016-02-14T22:32:28.781Z,83
2016-02-14T22:33:28.081Z,83
2016-02-14T22:34:27.396Z,83
2016-02-14T22:35:26.899Z,83
2016-02-14T22:36:26.433Z,83
2016-02-14T22:37:26.233Z,83
2016-02-14T22:38:26.095Z,84
2016-02-14T22:39:27.097Z,84
2016-02-14T22:40:27.193Z,84
2016-02-14T22:41:27.164Z,84
2016-02-14T22:42:27.324Z,84
2016-02-14T22:43:27.499Z,84
2016-02-14T22:44:27.813Z,85
2016-02-14T22:45:28.363Z,85
2016-02-14T22:46:29.007Z,85
2016-02-14T22:47:29.462Z,85
2016-02-14T22:48:30.059Z,85
2016-02-14T22:49:31.061Z,85
2016-02-14T22:50:31.627Z,85
2016-02-14T22:51:32.161Z,85
2016-02-14T22:52:32.976Z,85
2016-02-14T22:53:33.791Z,85
2016-02-14T22:54:34.575Z,85
2016-02-14T22:55:35.406Z,85
2016-02-14T22:56:36.440Z,85
2016-02-14T22:57:37.740Z,85
2016-02-14T22:58:40.070Z,85
2016-02-14T22:59:39.620Z,85
2016-02-14T23:00:40.685Z,85
2016-02-14T23:01:41.734Z,85
2016-02-14T23:02:42.800Z,85
2016-02-14T23:03:43.849Z,85
2016-02-14T23:04:44.914Z,86
2016-02-14T23:05:46.276Z,85
2016-02-14T23:06:47.279Z,86
2016-02-14T23:07:48.594Z,86
2016-02-14T23:08:49.972Z,86
2016-02-14T23:09:51.084Z,86
2016-02-14T23:10:52.399Z,86
2016-02-14T23:11:53.592Z,86
2016-02-14T23:12:54.923Z,86
2016-02-14T23:13:56.458Z,86
2016-02-14T23:14:58.039Z,86
2016-02-14T23:15:59.633Z,86
2016-02-14T23:17:01.152Z,86
2016-02-14T23:18:02.764Z,86
2016-02-14T23:19:04.346Z,86
2016-02-14T23:20:05.363Z,86
2016-02-14T23:21:06.914Z,86
2016-02-14T23:22:08.479Z,86
2016-02-14T23:23:10.044Z,86
2016-02-14T23:24:11.624Z,86
2016-02-14T23:25:13.174Z,86
2016-02-14T23:26:14.739Z,86
2016-02-14T23:27:16.305Z,86
2016-02-14T23:28:17.871Z,86
2016-02-14T23:29:19.169Z,86
2016-02-14T23:30:20.484Z,86
2016-02-14T23:31:22.049Z,86
2016-02-14T23:32:23.615Z,86
2016-02-14T23:33:25.180Z,86
2016-02-14T23:34:26.729Z,86
2016-02-14T23:35:28.327Z,86
2016-02-14T23:36:29.876Z,86
2016-02-14T23:37:31.440Z,86
2016-02-14T23:38:33.007Z,86
2016-02-14T23:39:34.618Z,86
2016-02-14T23:40:35.620Z,86
2016-02-14T23:41:37.171Z,86
2016-02-14T23:42:38.751Z,86
2016-02-14T23:43:40.067Z,86
2016-02-14T23:44:41.366Z,86
2016-02-14T23:45:42.681Z,86
2016-02-14T23:46:43.980Z,86
2016-02-14T23:47:45.312Z,86
2016-02-14T23:48:46.861Z,86
2016-02-14T23:49:48.504Z,86
2016-02-14T23:50:49.492Z,86
2016-02-14T23:51:50.744Z,86
2016-02-14T23:52:52.372Z,86
2016-02-14T23:53:54.047Z,86
2016-02-14T23:54:55.283Z,86
2016-02-14T23:55:56.552Z,86
2016-02-14T23:56:58.117Z,86
2016-02-14T23:57:59.682Z,86
2016-02-14T23:59:00.997Z,86
